Tiempo atmosférico en la estación meteorológica de Villena, Alacant/Alicante (486 m.)



Fecha
DESCASC
Temp. máxima en grados centígrados (hora)
DESCASC
Temp. mínima en grados centígrados (hora)
DESCASC
Temp. media en grados centígrados
DESCASC
Racha de viento máxima en m/sg (hora)
DESCASC
Velocidad máxima media en intervalos de 10 minutos(hora)
DESCASC
Precipitaciones diarias en mm
DESCASC
Precipitaciones de 00:00 a 06:00 en mm
DESCASC
Precipitaciones de 06:00 a 12:00 en mm
DESCASC
Precipitaciones de 12:00 a 18:00 en mm
DESCASC
Precipitaciones de 18:00 a 24:00 en mm
DESCASC
31-03-2020 14.9 (14:20) 5.3 (08:00) 10.1 8.89 (22:50) 5.83 (07:20) 2.2 0.2 2 0 0
30-03-2020 16.4 (14:20) 4.1 (06:10) 10.2 9.17 (22:00) 5.28 (21:20) 1.2 0 0.4 0 0.8
29-03-2020 19.6 (16:50) 0.5 (00:00) 10.1 8.33 (19:00) 6.39 (19:00) 0 0 0 0 0
28-03-2020 13.4 (17:00) 3 (00:00) 8.2 6.67 (12:30) 3.61 (16:20) 0 0 0 0 0
27-03-2020 7.2 (18:10) 5 (00:00) 6.1 8.06 (07:20) 4.72 (07:20) 11 0 4.4 6.6 0
26-03-2020 15.5 (15:50) 5.5 (00:00) 10.5 11.11 (13:10) 6.94 (13:20) 2.2 2.2 0 0 0
25-03-2020 11 (15:50) 5.8 (00:00) 8.4 6.94 (20:50) 5 (20:50) 4.8 0.8 0.4 0.2 3.4
24-03-2020 10.9 (11:10) 7.4 (00:00) 9.1 10.83 (22:10) 6.67 (16:40) 21.2 12.8 7.8 0.6 0
23-03-2020 15.2 (15:40) 6.1 (00:00) 10.6 8.06 (16:20) 5.83 (16:20) 9 0.2 6.4 0.8 1.6
22-03-2020 12.5 (12:30) 5.3 (06:10) 8.9 7.5 (14:00) 5.28 (14:00) 7.2 0.2 0.2 4 2.8
21-03-2020 14.1 (11:30) 7.5 (00:00) 10.8 8.89 (17:40) 5.83 (18:10) 22 0 0 12.2 9.8
20-03-2020 13.5 (11:40) 3 (00:00) 8.3 10.28 (16:50) 6.39 (16:50) 0 0 0 0 0
19-03-2020 14.8 (13:20) 6.1 (00:00) 10.5 8.06 (17:00) 5.28 (16:50) 0 0 0 0 0
18-03-2020 15.5 (14:30) 8.3 (00:00) 11.9 12.22 (16:00) 8.33 (13:40) 0 0 0 0 0
17-03-2020 13.1 (16:10) 4.9 (00:00) 9 11.94 (16:00) 7.78 (18:40) 5.2 2 3 0.2 0
16-03-2020 12.2 (10:50) 5.2 (00:00) 8.7 10.28 (11:10) 6.67 (11:40) 8.2 0.6 2.6 3.4 1.6
15-03-2020 18.6 (14:40) 3.3 (00:00) 11 10 (16:40) 7.22 (18:20) 0 0 0 0 0
14-03-2020 20.3 (15:20) 3.8 (00:00) 12 8.89 (16:30) 6.67 (16:40) 0 0 0 0 0
13-03-2020 19.8 (14:40) 4.8 (04:40) 12.3 9.72 (09:20) 6.94 (09:40) 0 0 0 0 0
12-03-2020 25.5 (15:10) 3.9 (00:00) 14.7 7.78 (13:40) 5.28 (13:00) 0 0 0 0 0
11-03-2020 28.8 (15:20) 4.7 (00:00) 16.7 8.89 (18:00) 6.67 (17:20) 0 0 0 0 0
10-03-2020 23.4 (14:50) 3.8 (00:00) 13.6 7.78 (15:40) 6.11 (18:40) 0 0 0 0 0
09-03-2020 19.4 (15:40) 7.7 (00:00) 13.5 12.78 (13:50) 7.78 (14:00) 0 0 0 0 0
08-03-2020 21.7 (16:10) 0.2 (00:00) 11 9.72 (15:20) 6.67 (15:20) 0 0 0 0 0
07-03-2020 17.3 (17:10) 4 (00:00) 10.6 11.11 (03:40) 7.5 (03:40) 0 0 0 0 0
06-03-2020 14.3 (15:50) 7.2 (00:00) 10.8 17.5 (15:50) 11.67 (16:00) 0.8 0 0 0.8 0
05-03-2020 20.9 (14:10) 8 (00:00) 14.4 18.89 (18:00) 11.67 (15:20) 0 0 0 0 0
04-03-2020 19.2 (15:30) 9.5 (00:00) 14.4 14.72 (13:40) 9.44 (13:40) 0 0 0 0 0

Gráficas

Temp. máximas Temp. mínimas Temp. medias Precipitaciones Rachas de viento máximas Velocidades máximas media en intervalos de 10 minutos

Datos horarios

Fecha y hora oficial Temperatura (ºC) Velocidad del viento (km/h) Dirección del viento Racha (km/h) Dirección de racha Precipitación (mm) Presión (hPa) Tendencia (hPa) Humedad (%)
2020-04-02 23:00:00 9.1 8 Norte 16 Norte 0 -- -- 92
2020-04-02 22:00:00 9.3 9 Norte 14 Norte 0.2 -- -- 93
2020-04-02 21:00:00 10 8 Nordeste 15 Este 0.4 -- -- 94
2020-04-02 20:00:00 10.6 9 Sudeste 21 Sudeste 0 -- -- 91
2020-04-02 19:00:00 11.1 14 Sudeste 17 Sudeste 0 -- -- 88
2020-04-02 18:00:00 11.3 10 Sudeste 18 Este 0 -- -- 84
2020-04-02 17:00:00 11.2 8 Nordeste 31 Este 6.6 -- -- 85
2020-04-02 16:00:00 15.4 7 Sudeste 17 Sudeste 0 -- -- 63
2020-04-02 15:00:00 16.3 5 Oeste 17 Noroeste 0 -- -- 54
2020-04-02 14:00:00 14.9 9 Norte 18 Norte 0 -- -- 63
2020-04-02 13:00:00 13.5 8 Noroeste 19 Nordeste 0 -- -- 67
2020-04-02 12:00:00 12.6 9 Norte 17 Noroeste 0 -- -- 76
2020-04-02 11:00:00 10.5 3 Noroeste 7 Noroeste 0 -- -- 92
2020-04-02 10:00:00 9 3 Noroeste 5 Noroeste 0 -- -- 98
2020-04-02 09:00:00 7.5 3 Nordeste 8 Oeste 0 -- -- 98
2020-04-02 08:00:00 6.3 5 Norte 10 Noroeste 0 -- -- 97
2020-04-02 07:00:00 6.4 3 Noroeste 12 Noroeste 0 -- -- 96
2020-04-02 06:00:00 7.3 8 Noroeste 15 Oeste 0 -- -- 96
2020-04-02 05:00:00 7.4 6 Oeste 9 Oeste 0 -- -- 96
2020-04-02 04:00:00 7.5 3 Noroeste 9 Nordeste 0 -- -- 95
2020-04-02 03:00:00 7.9 8 Norte 14 Oeste 0.2 -- -- 94
2020-04-02 02:00:00 8.3 6 Oeste 26 Nordeste 2.6 -- -- 93
2020-04-02 01:00:00 8.8 23 Oeste 45 Oeste 2.4 -- -- 93
2020-04-02 00:00:00 9.7 13 Oeste 20 Noroeste 0.8 -- -- 92
2020-04-01 23:00:00 10.3 10 Sur 22 Sudeste 0 -- -- 86
2020-04-01 22:00:00 9.9 6 Sudoeste 10 Noroeste 0 -- -- 91
2020-04-01 21:00:00 10.2 7 Noroeste 13 Sudeste 0 -- -- 90
2020-04-01 20:00:00 10.3 11 Sudeste 16 Sudeste 0.2 -- -- 90
2020-04-01 19:00:00 10.6 0 Calma 33 Oeste 7.2 -- -- 87
2020-04-01 18:00:00 15.1 14 Sur 27 Sur 0.2 -- -- 78
2020-04-01 17:00:00 18.1 3 Sur 12 Sudoeste 0 -- -- 51
2020-04-01 16:00:00 18.2 5 Nordeste 13 Oeste 0 -- -- 46
2020-04-01 15:00:00 18.4 6 Sur 19 Oeste 0 -- -- 50
2020-04-01 14:00:00 17.7 6 Sur 15 Sudoeste 0 -- -- 57
2020-04-01 13:00:00 15.9 8 Norte 17 Norte 0 -- -- 68
2020-04-01 12:00:00 15.1 8 Norte 16 Norte 0 -- -- 71
2020-04-01 11:00:00 12.7 5 Norte 14 Norte 0 -- -- 85
2020-04-01 10:00:00 10.5 5 Nordeste 8 Nordeste 0 -- -- 97
2020-04-01 09:00:00 7.9 4 Noroeste 6 Noroeste 0 -- -- 97
2020-04-01 08:00:00 7 0 Calma 11 Oeste 0 -- -- 96
2020-04-01 07:00:00 7.4 6 Oeste 10 Oeste 0 -- -- 95
2020-04-01 06:00:00 8.9 3 Norte 26 Oeste 1.2 -- -- 96
2020-04-01 05:00:00 8.8 5 Oeste 8 Este 0 -- -- 96
2020-04-01 04:00:00 8.5 6 Oeste 9 Oeste 0 -- -- 96
2020-04-01 03:00:00 9.4 2 Oeste 14 Noroeste 0 -- -- 96
2020-04-01 02:00:00 9.2 11 Norte 18 Norte 0 -- -- 96
2020-04-01 01:00:00 9.1 11 Norte 23 Norte 0 -- -- 95
2020-04-01 00:00:00 9.7 16 Norte 31 Nordeste 0 -- -- 94
2020-03-31 23:00:00 9.7 19 Nordeste 32 Nordeste 0 -- -- 93
2020-03-31 22:00:00 10.4 18 Nordeste 31 Nordeste 0 -- -- 91
2020-03-31 21:00:00 11 16 Nordeste 26 Nordeste 0 -- -- 89
2020-03-31 20:00:00 11.4 16 Nordeste 25 Nordeste 0 -- -- 87
2020-03-31 19:00:00 12.3 17 Norte 25 Norte 0 -- -- 84
2020-03-31 18:00:00 13.1 16 Nordeste 24 Norte 0 -- -- 80
2020-03-31 17:00:00 13.1 13 Norte 18 Norte 0 -- -- 81
2020-03-31 16:00:00 13.9 9 Noroeste 14 Noroeste 0 -- -- 79
2020-03-31 15:00:00 14.9 3 Oeste 18 Norte 0 -- -- 71
2020-03-31 14:00:00 14.7 4 Nordeste 16 Norte 0 -- -- 77
2020-03-31 13:00:00 12.6 9 Noroeste 16 Noroeste 0 -- -- 81
2020-03-31 12:00:00 9.8 11 Noroeste 19 Noroeste 0 -- -- 90
2020-03-31 11:00:00 7.9 8 Noroeste 15 Noroeste 0 -- -- 96
2020-03-31 10:00:00 6.4 8 Norte 14 Nordeste 0.6 -- -- 96
2020-03-31 09:00:00 6 6 Norte 21 Norte 0.6 -- -- 96
2020-03-31 08:00:00 5.3 14 Norte 30 Norte 0.6 -- -- 96
2020-03-31 07:00:00 5.6 20 Norte 30 Norte 0.2 -- -- 95
2020-03-31 06:00:00 6.3 12 Norte 23 Nordeste 0 -- -- 94
2020-03-31 05:00:00 6.7 13 Norte 22 Norte 0 -- -- 93
2020-03-31 04:00:00 7.2 14 Nordeste 24 Nordeste 0 -- -- 92
2020-03-31 03:00:00 7.2 12 Nordeste 23 Nordeste 0 -- -- 93
2020-03-31 02:00:00 7 12 Norte 22 Norte 0 -- -- 93
2020-03-31 01:00:00 7.2 11 Norte 17 Norte 0.2 -- -- 92
2020-03-31 00:00:00 7.1 8 Nordeste 21 Norte 0.4 -- -- 93
2020-03-30 23:00:00 7 14 Nordeste 26 Nordeste 0 -- -- 92
2020-03-30 22:00:00 6.9 17 Nordeste 33 Nordeste 0 -- -- 93
2020-03-30 21:00:00 7.3 17 Nordeste 28 Nordeste 0.2 -- -- 90
2020-03-30 20:00:00 7.5 18 Nordeste 30 Nordeste 0 -- -- 91
2020-03-30 19:00:00 8.4 10 Norte 31 Nordeste 0.2 -- -- 91
2020-03-30 18:00:00 9.5 17 Nordeste 32 Nordeste 0 -- -- 86
2020-03-30 17:00:00 11 16 Nordeste 29 Nordeste 0 -- -- 85
2020-03-30 16:00:00 11.4 19 Nordeste 32 Nordeste 0 -- -- 85
2020-03-30 15:00:00 14.4 14 Sur 21 Sur 0 -- -- 74
2020-03-30 14:00:00 16.3 8 Sudoeste 15 Sur 0 -- -- 67
2020-03-30 13:00:00 14.3 5 Sudoeste 10 Sur 0 -- -- 74
2020-03-30 12:00:00 11.2 4 Norte 9 Norte 0.2 -- -- 93
2020-03-30 11:00:00 9.2 4 Nordeste 12 Este 0.2 -- -- 96
2020-03-30 10:00:00 7.7 4 Norte 9 Norte 0 -- -- 97
2020-03-30 09:00:00 6.5 3 Sudoeste 8 Norte 0 -- -- 97
2020-03-30 08:00:00 5 2 Noroeste 4 Noroeste 0 -- -- 97
2020-03-30 07:00:00 4.7 2 Noroeste 5 Norte 0 -- -- 96
2020-03-30 06:00:00 4.3 0 Calma 3 Este 0 -- -- 95
2020-03-30 05:00:00 5.2 0 Calma 5 Noroeste 0 -- -- 94
2020-03-30 04:00:00 5.5 0 Calma 6 Oeste 0 -- -- 94
2020-03-30 03:00:00 5.7 3 Noroeste 5 Noroeste 0 -- -- 92
2020-03-30 02:00:00 7.1 0 Calma 8 Sudoeste 0 -- -- 90
2020-03-30 01:00:00 8.3 2 Sudoeste 12 Sudeste 0 -- -- 86
2020-03-30 00:00:00 9.3 6 Sur 12 Sur 0 -- -- 84
2020-03-29 23:00:00 10.5 9 Sudeste 19 Sudeste 0 -- -- 82
2020-03-29 22:00:00 11 14 Sudeste 19 Sudeste 0 -- -- 82
2020-03-29 21:00:00 12.1 12 Sudeste 22 Sudeste 0 -- -- 77
2020-03-29 20:00:00 14.3 16 Sudeste 30 Sudeste 0 -- -- 68
2020-03-29 19:00:00 16.9 23 Sudeste 30 Sudeste 0 -- -- 56
2020-03-29 18:00:00 19.4 7 Oeste 22 Oeste 0 -- -- 41
2020-03-29 17:00:00 19.4 10 Oeste 22 Sudoeste 0 -- -- 41
2020-03-29 16:00:00 19.5 11 Oeste 23 Oeste 0 -- -- 44
2020-03-29 15:00:00 18.7 9 Oeste 19 Nordeste 0 -- -- 45
2020-03-29 14:00:00 17.2 5 Sur 13 Noroeste 0 -- -- 50
2020-03-29 13:00:00 15.9 8 Norte 16 Norte 0 -- -- 57
2020-03-29 12:00:00 13.7 6 Norte 12 Norte 0 -- -- 59
2020-03-29 11:00:00 10.7 5 Norte 10 Norte 0 -- -- 75
2020-03-29 10:00:00 6.4 6 Norte 12 Norte 0 -- -- 96
2020-03-29 09:00:00 2.5 5 Norte 8 Norte 0 -- -- 98
2020-03-29 08:00:00 0.8 6 Norte 9 Norte 0 -- -- 97
2020-03-29 07:00:00 0.7 5 Norte 10 Norte 0 -- -- 96
2020-03-29 06:00:00 0.6 6 Noroeste 12 Norte 0 -- -- 96
2020-03-29 05:00:00 0.5 5 Norte 7 Norte 0 -- -- 96
2020-03-29 03:00:00 2 5 Noroeste 9 Norte 0 -- -- 94
2020-03-29 01:00:00 2.7 7 Norte 9 Norte 0 -- -- 94
2020-03-29 00:00:00 3.1 3 Noroeste 8 Noroeste 0 -- -- 93
2020-03-28 23:00:00 3.6 5 Norte 6 Norte 0 -- -- 91
2020-03-28 22:00:00 4.2 2 Oeste 5 Noroeste 0 -- -- 90
2020-03-28 21:00:00 6.3 0 Calma 6 Nordeste 0 -- -- 85
2020-03-28 20:00:00 8.3 5 Nordeste 18 Nordeste 0 -- -- 76
2020-03-28 19:00:00 11.4 10 Nordeste 18 Nordeste 0 -- -- 62
2020-03-28 18:00:00 12.4 11 Nordeste 19 Nordeste 0 -- -- 62
2020-03-28 17:00:00 13.4 10 Nordeste 20 Nordeste 0 -- -- 59
2020-03-28 16:00:00 12.7 12 Norte 21 Norte 0 -- -- 59
2020-03-28 15:00:00 12.5 8 Nordeste 19 Norte 0 -- -- 63
2020-03-28 14:00:00 12.7 8 Norte 22 Nordeste 0 -- -- 58
2020-03-28 13:00:00 12.9 13 Nordeste 24 Norte 0 -- -- 62
2020-03-28 12:00:00 11.8 8 Noroeste 19 Oeste 0 -- -- 69
2020-03-28 11:00:00 10.2 9 Noroeste 18 Noroeste 0 -- -- 73
2020-03-28 10:00:00 8.8 10 Norte 17 Noroeste 0 -- -- 80
2020-03-28 09:00:00 7 6 Noroeste 13 Noroeste 0 -- -- 91
2020-03-28 08:00:00 4.8 4 Norte 12 Norte 0 -- -- 97
2020-03-28 07:00:00 3.1 0 Calma 14 Oeste 0 -- -- 96
2020-03-28 06:00:00 3.9 7 Noroeste 12 Noroeste 0 -- -- 95
2020-03-28 05:00:00 4.8 6 Norte 11 Norte 0 -- -- 95
2020-03-28 04:00:00 5.2 3 Norte 17 Norte 0 -- -- 95
2020-03-28 03:00:00 5 2 Noroeste 11 Noroeste 0 -- -- 95
2020-03-28 02:00:00 5.2 5 Noroeste 9 Noroeste 0 -- -- 94
2020-03-28 01:00:00 5.6 6 Norte 15 Nordeste 0 -- -- 93
2020-03-28 00:00:00 6.2 6 Nordeste 12 Norte 0 -- -- 94
2020-03-27 23:00:00 6.1 8 Norte 12 Norte 0 -- -- 93
2020-03-27 22:00:00 6.1 4 Norte 12 Norte 0 -- -- 93
2020-03-27 21:00:00 6.1 7 Norte 12 Norte 0 -- -- 92
2020-03-27 20:00:00 6.4 9 Norte 15 Nordeste 0 -- -- 91
2020-03-27 19:00:00 6.7 7 Norte 20 Nordeste 0 -- -- 88
2020-03-27 18:00:00 7.1 10 Nordeste 17 Nordeste 0 -- -- 86
2020-03-27 17:00:00 6.5 11 Nordeste 20 Nordeste 0.4 -- -- 88
2020-03-27 16:00:00 6.2 2 Norte 5 Nordeste 1 -- -- 91
2020-03-27 15:00:00 6.1 2 Oeste 6 Noroeste 2.2 -- -- 91
2020-03-27 14:00:00 5.9 4 Norte 8 Nordeste 1 -- -- 91
2020-03-27 13:00:00 5.7 6 Nordeste 18 Este 2 -- -- 91
2020-03-27 12:00:00 6.4 5 Norte 8 Norte 1.6 -- -- 92
2020-03-27 11:00:00 6.4 0 Calma 7 Nordeste 1.2 -- -- 94
2020-03-27 10:00:00 5.8 7 Nordeste 12 Nordeste 1 -- -- 95
2020-03-27 09:00:00 5.3 8 Norte 16 Norte 0.6 -- -- 93
2020-03-27 08:00:00 5.2 9 Norte 29 Nordeste 0 -- -- 90
2020-03-27 07:00:00 5.3 11 Norte 19 Nordeste 0 -- -- 91
2020-03-27 06:00:00 5.2 14 Norte 21 Norte 0 -- -- 90
2020-03-27 05:00:00 5.4 12 Norte 21 Norte 0 -- -- 87
2020-03-27 04:00:00 6.1 8 Norte 22 Norte 0 -- -- 86
2020-03-27 03:00:00 6.4 9 Norte 16 Norte 0 -- -- 87
2020-03-27 02:00:00 6.3 7 Norte 14 Nordeste 0 -- -- 85
2020-03-27 01:00:00 6.3 5 Norte 8 Norte 0 -- -- 88
2020-03-27 00:00:00 5.9 4 Norte 13 Norte 0 -- -- 87
2020-03-26 23:00:00 5.6 6 Norte 17 Norte 0 -- -- 81
2020-03-26 22:00:00 6.1 10 Norte 18 Norte 0 -- -- 78
2020-03-26 21:00:00 7 5 Norte 23 Nordeste 0 -- -- 70
2020-03-26 20:00:00 8 12 Nordeste 26 Nordeste 0 -- -- 74
2020-03-26 19:00:00 10.2 14 Nordeste 33 Nordeste 0 -- -- 65
2020-03-26 18:00:00 13.1 7 Norte 24 Nordeste 0 -- -- 51
2020-03-26 17:00:00 12.3 12 Norte 33 Nordeste 0 -- -- 56
2020-03-26 16:00:00 14.4 17 Norte 32 Norte 0 -- -- 45
2020-03-26 15:00:00 14.7 22 Norte 35 Norte 0 -- -- 46
2020-03-26 14:00:00 14.1 24 Norte 40 Norte 0 -- -- 46
2020-03-26 13:00:00 13.6 19 Norte 33 Norte 0 -- -- 58
2020-03-26 12:00:00 12.7 20 Norte 35 Noroeste 0 -- -- 60
2020-03-26 11:00:00 12.1 18 Norte 34 Noroeste 0 -- -- 65
2020-03-26 10:00:00 11.4 23 Noroeste 35 Noroeste 0 -- -- 73
2020-03-26 09:00:00 9.2 6 Noroeste 14 Noroeste 0 -- -- 94
2020-03-26 08:00:00 7 3 Norte 10 Noroeste 0 -- -- 97
2020-03-26 07:00:00 6.1 6 Noroeste 12 Noroeste 0 -- -- 98
2020-03-26 06:00:00 6.7 0 Calma 0 Calma 0 -- -- 97
2020-03-26 05:00:00 6.7 0 Calma 5 Sudeste 0 -- -- 98
2020-03-26 04:00:00 6.5 2 Sudeste 8 Sudeste 0 -- -- 97
2020-03-26 03:00:00 6.5 5 Sudeste 13 Sudeste 0 -- -- 97
2020-03-26 02:00:00 6.6 12 Sudeste 18 Sudeste 0.4 -- -- 97
2020-03-26 01:00:00 6.4 13 Sudeste 19 Sudeste 1.8 -- -- 97
2020-03-26 00:00:00 6.5 11 Sudeste 16 Sudeste 1.2 -- -- 96
2020-03-25 23:00:00 6.6 13 Sudeste 24 Sudeste 0.6 -- -- 95
2020-03-25 22:00:00 6.6 18 Sudeste 23 Sudeste 0 -- -- 94
2020-03-25 21:00:00 6.6 17 Sudeste 25 Sudeste 0.2 -- -- 93
2020-03-25 20:00:00 7.5 6 Sur 19 Sudeste 1.4 -- -- 91
2020-03-25 19:00:00 8.2 14 Sur 22 Sur 0 -- -- 87
2020-03-25 18:00:00 9.9 11 Sudeste 15 Sur 0.2 -- -- 83
2020-03-25 17:00:00 10.1 5 Norte 12 Nordeste 0 -- -- 73
2020-03-25 16:00:00 11 9 Nordeste 21 Nordeste 0 -- -- 72
2020-03-25 15:00:00 10.5 14 Nordeste 22 Nordeste 0 -- -- 77
2020-03-25 14:00:00 10.1 10 Nordeste 19 Norte 0 -- -- 81
2020-03-25 13:00:00 8.8 7 Nordeste 13 Norte 0 -- -- 82
2020-03-25 12:00:00 8.3 8 Norte 16 Noroeste 0 -- -- 85
2020-03-25 11:00:00 8 6 Norte 14 Norte 0 -- -- 83
2020-03-25 10:00:00 7.8 8 Norte 13 Norte 0 -- -- 88
2020-03-25 09:00:00 7 8 Norte 12 Noroeste 0 -- -- 94
2020-03-25 08:00:00 6.2 7 Norte 12 Noroeste 0 -- -- 95
2020-03-25 07:00:00 6 3 Noroeste 11 Norte 0.4 -- -- 96
2020-03-25 06:00:00 5.8 6 Noroeste 11 Noroeste 0 -- -- 96
2020-03-25 05:00:00 6.6 5 Norte 9 Norte 0.4 -- -- 95
2020-03-25 04:00:00 6.9 7 Noroeste 11 Noroeste 0.4 -- -- 94
2020-03-25 03:00:00 6.8 7 Norte 11 Norte 0 -- -- 92
2020-03-25 02:00:00 6.3 7 Norte 13 Norte 0 -- -- 90
2020-03-25 01:00:00 7.5 11 Norte 22 Norte 0 -- -- 88
2020-03-25 00:00:00 7.5 12 Norte 27 Nordeste 0 -- -- 86
2020-03-24 23:00:00 8 14 Norte 39 Nordeste 0 -- -- 86
2020-03-24 22:00:00 8 18 Norte 36 Norte 0 -- -- 87
2020-03-24 21:00:00 8.5 18 Norte 36 Nordeste 0 -- -- 88
2020-03-24 20:00:00 8.6 19 Nordeste 35 Norte 0 -- -- 90
2020-03-24 19:00:00 8.6 16 Norte 32 Nordeste 0 -- -- 93
2020-03-24 18:00:00 8.9 18 Nordeste 35 Norte 0 -- -- 93
2020-03-24 17:00:00 9.3 22 Nordeste 37 Norte 0 -- -- 92
2020-03-24 16:00:00 10 20 Norte 32 Nordeste 0.2 -- -- 90
2020-03-24 15:00:00 10.9 4 Nordeste 22 Este 0 -- -- 85
2020-03-24 14:00:00 10.9 18 Este 33 Nordeste 0 -- -- 82
2020-03-24 13:00:00 10.8 18 Este 36 Este 0.4 -- -- 84
2020-03-24 12:00:00 10.8 13 Este 27 Este 0.6 -- -- 87
2020-03-24 11:00:00 10.6 14 Este 28 Este 0.2 -- -- 89
2020-03-24 10:00:00 10 2 Norte 20 Oeste 0.2 -- -- 94
2020-03-24 09:00:00 9.4 10 Norte 17 Norte 0.8 -- -- 95
2020-03-24 08:00:00 9.3 8 Noroeste 17 Oeste 2.2 -- -- 96
2020-03-24 07:00:00 9.1 6 Oeste 10 Oeste 3.8 -- -- 95
2020-03-24 06:00:00 9.2 4 Norte 11 Norte 2.4 -- -- 94
2020-03-24 05:00:00 9.4 5 Oeste 9 Este 4.4 -- -- 94
2020-03-24 04:00:00 9.4 5 Oeste 12 Oeste 2 -- -- 94
2020-03-24 03:00:00 9.3 2 Noroeste 10 Este 1.8 -- -- 93
2020-03-24 02:00:00 10.3 5 Este 12 Sudeste 2.2 -- -- 89
2020-03-24 01:00:00 10.4 3 Noroeste 14 Norte 0 -- -- 89
2020-03-24 00:00:00 10.3 9 Nordeste 14 Norte 0 -- -- 90
2020-03-23 23:00:00 10.3 9 Norte 19 Este 0 -- -- 85
2020-03-23 22:00:00 10.8 8 Este 28 Este 0.2 -- -- 83
2020-03-23 21:00:00 11.1 15 Nordeste 23 Este 0.2 -- -- 81
2020-03-23 20:00:00 11.2 2 Nordeste 25 Este 0.2 -- -- 87
2020-03-23 19:00:00 11.7 9 Este 18 Este 1 -- -- 86
2020-03-23 18:00:00 12.8 8 Sudeste 18 Sudeste 0 -- -- 82
2020-03-23 17:00:00 14.3 14 Este 29 Este 0 -- -- 66
2020-03-23 16:00:00 15.2 17 Este 24 Este 0 -- -- 67
2020-03-23 15:00:00 14.6 9 Norte 15 Nordeste 0 -- -- 80
2020-03-23 14:00:00 12.9 8 Norte 13 Norte 0 -- -- 89
2020-03-23 13:00:00 10.3 3 Norte 9 Norte 0.8 -- -- 94
2020-03-23 12:00:00 9.2 8 Sudoeste 25 Sur 1.6 -- -- 94
2020-03-23 11:00:00 9.5 9 Sudoeste 19 Sur 3 -- -- 95
2020-03-23 10:00:00 10.1 10 Oeste 16 Oeste 1.8 -- -- 97
2020-03-23 09:00:00 10.2 0 Calma 4 Noroeste 0 -- -- 98
2020-03-23 08:00:00 8.9 0 Calma 6 Norte 0 -- -- 98
2020-03-23 07:00:00 7.8 4 Sudoeste 8 Oeste 0 -- -- 98
2020-03-23 06:00:00 7.8 3 Sudoeste 6 Oeste 0 -- -- 98
2020-03-23 05:00:00 8 0 Calma 5 Nordeste 0 -- -- 98
2020-03-23 04:00:00 7.7 0 Calma 6 Nordeste 0.2 -- -- 98
2020-03-23 03:00:00 7.5 0 Calma 4 Sudoeste 0 -- -- 97
2020-03-23 02:00:00 7.1 0 Calma 5 Sudoeste 0 -- -- 97
2020-03-23 01:00:00 6.9 3 Norte 4 Nordeste 0 -- -- 97
2020-03-23 00:00:00 6.1 0 Calma 4 Sudoeste 0 -- -- 97
2020-03-22 23:00:00 7.1 4 Sudoeste 6 Sudoeste 0 -- -- 96
2020-03-22 22:00:00 8 4 Sudoeste 5 Sudoeste 0 -- -- 95
2020-03-22 21:00:00 8.5 0 Calma 7 Sur 0.2 -- -- 95
2020-03-22 20:00:00 8.4 8 Sur 17 Sudeste 0.2 -- -- 95
2020-03-22 19:00:00 8.7 12 Sudeste 17 Sudeste 2.4 -- -- 93
2020-03-22 18:00:00 9.3 7 Sur 16 Sur 3.2 -- -- 88
2020-03-22 17:00:00 11 11 Sur 17 Sur 0.6 -- -- 86
2020-03-22 16:00:00 11.8 6 Sudeste 12 Este 0 -- -- 84
2020-03-22 15:00:00 10.9 9 Este 21 Sudeste 0 -- -- 87
2020-03-22 14:00:00 11.1 19 Sudeste 27 Sudeste 0.2 -- -- 85
2020-03-22 13:00:00 12.2 13 Sur 21 Sur 0 -- -- 85
2020-03-22 12:00:00 11.2 10 Sudeste 15 Sudeste 0.2 -- -- 89
2020-03-22 11:00:00 11.6 4 Sudeste 12 Sudeste 0 -- -- 84
2020-03-22 10:00:00 10.3 4 Norte 10 Noroeste 0 -- -- 97
2020-03-22 09:00:00 8.7 5 Oeste 10 Noroeste 0 -- -- 98
2020-03-22 08:00:00 7.3 2 Noroeste 6 Sudeste 0 -- -- 98
2020-03-22 07:00:00 6.7 2 Norte 9 Oeste 0 -- -- 98
2020-03-22 06:00:00 5.4 0 Calma 8 Noroeste 0 -- -- 97
2020-03-22 05:00:00 5.4 0 Calma 11 Oeste 0 -- -- 97
2020-03-22 04:00:00 6.3 8 Noroeste 14 Noroeste 0 -- -- 97
2020-03-22 03:00:00 6.1 6 Noroeste 10 Oeste 0 -- -- 97
2020-03-22 02:00:00 7 5 Oeste 15 Oeste 0 -- -- 97
2020-03-22 01:00:00 7.4 7 Noroeste 12 Noroeste 0.2 -- -- 97
2020-03-22 00:00:00 7.6 6 Noroeste 8 Noroeste 0.6 -- -- 97
2020-03-21 23:00:00 7.6 6 Noroeste 8 Norte 0.6 -- -- 97
2020-03-21 22:00:00 7.6 5 Noroeste 8 Noroeste 0.6 -- -- 96
2020-03-21 21:00:00 7.6 6 Noroeste 8 Noroeste 0.4 -- -- 96
2020-03-21 20:00:00 7.6 4 Noroeste 13 Noroeste 3.2 -- -- 95
2020-03-21 19:00:00 7.8 9 Oeste 32 Oeste 4.4 -- -- 94
2020-03-21 18:00:00 8.4 14 Oeste 32 Oeste 7.6 -- -- 94
2020-03-21 17:00:00 9.8 9 Nordeste 21 Nordeste 0.2 -- -- 95
2020-03-21 16:00:00 10.1 11 Nordeste 20 Nordeste 2.4 -- -- 94
2020-03-21 15:00:00 10.2 11 Nordeste 28 Nordeste 2 -- -- 92
2020-03-21 14:00:00 11.5 18 Nordeste 27 Nordeste 0 -- -- 83
2020-03-21 13:00:00 12 17 Nordeste 26 Norte 0 -- -- 82
2020-03-21 12:00:00 13.9 17 Norte 24 Norte 0 -- -- 77
2020-03-21 11:00:00 13 14 Nordeste 21 Norte 0 -- -- 83
2020-03-21 10:00:00 10.7 9 Norte 16 Norte 0 -- -- 88
2020-03-21 09:00:00 10.1 9 Norte 15 Norte 0 -- -- 90
2020-03-21 08:00:00 9.4 4 Noroeste 13 Norte 0 -- -- 90
2020-03-21 07:00:00 9.1 6 Norte 14 Norte 0 -- -- 91
2020-03-21 06:00:00 9.2 9 Norte 18 Norte 0 -- -- 91
2020-03-21 05:00:00 9.2 11 Norte 19 Norte 0 -- -- 90
2020-03-21 04:00:00 9.6 7 Norte 12 Norte 0 -- -- 88
2020-03-21 03:00:00 9.5 7 Norte 15 Norte 0 -- -- 89
2020-03-21 02:00:00 9.6 9 Norte 17 Norte 0 -- -- 90
2020-03-21 01:00:00 9.7 8 Norte 12 Norte 0 -- -- 91
2020-03-21 00:00:00 9.9 4 Oeste 12 Nordeste 0 -- -- 90
2020-03-20 23:00:00 10.1 6 Nordeste 11 Nordeste 0 -- -- 88
2020-03-20 22:00:00 10.4 0 Calma 16 Nordeste 0 -- -- 84
2020-03-20 21:00:00 10.1 11 Nordeste 27 Nordeste 0 -- -- 86
2020-03-20 20:00:00 9.7 17 Norte 28 Norte 0 -- -- 82
2020-03-20 19:00:00 10.5 20 Nordeste 33 Nordeste 0 -- -- 76
2020-03-20 18:00:00 11.3 20 Nordeste 34 Nordeste 0 -- -- 76
2020-03-20 17:00:00 11.8 21 Nordeste 37 Nordeste 0 -- -- 78
2020-03-20 16:00:00 11.9 22 Nordeste 32 Nordeste 0 -- -- 78
2020-03-20 15:00:00 12.2 18 Nordeste 25 Norte 0 -- -- 77
2020-03-20 14:00:00 12.9 3 Sudeste 13 Sudeste 0 -- -- 68
2020-03-20 13:00:00 12.4 9 Este 21 Nordeste 0 -- -- 71
2020-03-20 12:00:00 13 13 Nordeste 25 Norte 0 -- -- 72
2020-03-20 11:00:00 12.1 15 Norte 24 Norte 0 -- -- 83
2020-03-20 10:00:00 11.6 9 Nordeste 15 Nordeste 0 -- -- 86
2020-03-20 09:00:00 9.1 0 Calma 10 Norte 0 -- -- 96
2020-03-20 08:00:00 7 5 Norte 9 Nordeste 0 -- -- 98
2020-03-20 07:00:00 3.7 4 Noroeste 8 Noroeste 0 -- -- 97
2020-03-20 06:00:00 3.6 3 Este 9 Noroeste 0 -- -- 95
2020-03-20 05:00:00 3.5 3 Norte 6 Noroeste 0 -- -- 95
2020-03-20 04:00:00 4.7 0 Calma 6 Oeste 0 -- -- 94
2020-03-20 03:00:00 6 5 Noroeste 9 Noroeste 0 -- -- 93
2020-03-20 02:00:00 7.3 4 Oeste 8 Norte 0 -- -- 91
2020-03-20 01:00:00 8.4 6 Norte 14 Nordeste 0 -- -- 90
2020-03-20 00:00:00 7.4 4 Norte 6 Norte 0 -- -- 90
2020-03-19 23:00:00 7.5 5 Norte 11 Norte 0 -- -- 90
2020-03-19 22:00:00 8.3 2 Noroeste 5 Sudoeste 0 -- -- 89
2020-03-19 21:00:00 9.9 2 Nordeste 16 Nordeste 0 -- -- 86
2020-03-19 20:00:00 10.7 10 Nordeste 21 Nordeste 0 -- -- 85
2020-03-19 19:00:00 11.6 11 Nordeste 22 Nordeste 0 -- -- 82
2020-03-19 18:00:00 12.3 12 Nordeste 28 Nordeste 0 -- -- 81
2020-03-19 17:00:00 12.7 18 Nordeste 29 Nordeste 0 -- -- 80
2020-03-19 16:00:00 13.6 15 Nordeste 27 Nordeste 0 -- -- 76
2020-03-19 15:00:00 13.9 13 Nordeste 28 Norte 0 -- -- 74
2020-03-19 14:00:00 14 13 Nordeste 23 Norte 0 -- -- 73
2020-03-19 13:00:00 14.4 12 Nordeste 26 Nordeste 0 -- -- 71
2020-03-19 12:00:00 14.2 15 Nordeste 25 Norte 0 -- -- 73
2020-03-19 11:00:00 13.9 16 Norte 26 Nordeste 0 -- -- 77
2020-03-19 10:00:00 12.4 14 Norte 20 Nordeste 0 -- -- 85
2020-03-19 09:00:00 10.4 10 Nordeste 18 Nordeste 0 -- -- 96
2020-03-19 08:00:00 6.8 3 Noroeste 11 Nordeste 0 -- -- 97
2020-03-19 07:00:00 6.4 4 Norte 10 Nordeste 0 -- -- 96
2020-03-19 06:00:00 7.3 7 Nordeste 13 Nordeste 0 -- -- 96
2020-03-19 05:00:00 6.3 5 Noroeste 7 Noroeste 0 -- -- 95
2020-03-19 04:00:00 6.4 3 Noroeste 13 Norte 0 -- -- 95
2020-03-19 03:00:00 7.4 10 Norte 13 Norte 0 -- -- 95
2020-03-19 02:00:00 7.3 8 Norte 14 Nordeste 0 -- -- 94
2020-03-19 01:00:00 7.5 6 Norte 12 Nordeste 0 -- -- 93
2020-03-19 00:00:00 8.3 9 Nordeste 14 Nordeste 0 -- -- 91
2020-03-18 23:00:00 8.7 12 Norte 17 Norte 0 -- -- 91
2020-03-18 22:00:00 8.8 9 Norte 19 Nordeste 0 -- -- 89
2020-03-18 21:00:00 9.4 10 Nordeste 19 Norte 0 -- -- 86
2020-03-18 20:00:00 10.1 6 Este 22 Norte 0 -- -- 84
2020-03-18 19:00:00 11.1 10 Norte 31 Norte 0 -- -- 79
2020-03-18 18:00:00 12.7 18 Norte 40 Nordeste 0 -- -- 72
2020-03-18 17:00:00 13.9 23 Nordeste 39 Norte 0 -- -- 68
2020-03-18 16:00:00 14.9 26 Nordeste 44 Nordeste 0 -- -- 69
2020-03-18 15:00:00 15.5 26 Nordeste 39 Norte 0 -- -- 69
2020-03-18 14:00:00 14.9 26 Nordeste 41 Nordeste 0 -- -- 72
2020-03-18 13:00:00 14.3 25 Norte 37 Nordeste 0 -- -- 73
2020-03-18 12:00:00 13.3 21 Nordeste 32 Nordeste 0 -- -- 80
2020-03-18 11:00:00 12.8 17 Nordeste 31 Nordeste 0 -- -- 80
2020-03-18 10:00:00 11.6 18 Nordeste 29 Nordeste 0 -- -- 75
2020-03-18 09:00:00 11.2 21 Nordeste 32 Nordeste 0 -- -- 79
2020-03-18 08:00:00 10.9 24 Nordeste 35 Nordeste 0 -- -- 88
2020-03-18 07:00:00 10.4 17 Norte 27 Norte 0 -- -- 89
2020-03-18 06:00:00 10.6 17 Nordeste 27 Norte 0 -- -- 87
2020-03-18 05:00:00 10.5 11 Norte 24 Norte 0 -- -- 86
2020-03-18 04:00:00 10.7 14 Norte 28 Norte 0 -- -- 84
2020-03-18 03:00:00 10.8 11 Norte 36 Norte 0 -- -- 85
2020-03-18 02:00:00 10.8 18 Norte 38 Nordeste 0 -- -- 86
2020-03-18 01:00:00 11 17 Norte 40 Nordeste 0 -- -- 88
2020-03-18 00:00:00 11 21 Nordeste 32 Nordeste 0 -- -- 88
2020-03-17 23:00:00 11.2 15 Norte 34 Norte 0 -- -- 84
2020-03-17 22:00:00 11.6 16 Norte 30 Norte 0 -- -- 89
2020-03-17 21:00:00 12.1 14 Norte 32 Noroeste 0 -- -- 89
2020-03-17 20:00:00 12.1 14 Norte 38 Nordeste 0 -- -- 91
2020-03-17 19:00:00 11.9 24 Norte 42 Norte 0 -- -- 90
2020-03-17 18:00:00 12.4 14 Nordeste 32 Norte 0 -- -- 89
2020-03-17 17:00:00 12.5 23 Norte 39 Norte 0 -- -- 89
2020-03-17 16:00:00 13 28 Norte 43 Norte 0 -- -- 90
2020-03-17 15:00:00 11.3 18 Norte 32 Norte 0 -- -- 91
2020-03-17 14:00:00 10.7 11 Norte 26 Norte 0 -- -- 92
2020-03-17 13:00:00 9.7 16 Norte 26 Norte 0.2 -- -- 95
2020-03-17 12:00:00 9.3 14 Norte 22 Norte 2.2 -- -- 96
2020-03-17 11:00:00 9.3 4 Noroeste 9 Noroeste 0.6 -- -- 97
2020-03-17 10:00:00 8.5 0 Calma 7 Oeste 0 -- -- 97
2020-03-17 09:00:00 8.1 3 Oeste 10 Norte 0 -- -- 97
2020-03-17 08:00:00 7.3 4 Oeste 6 Oeste 0.2 -- -- 97
2020-03-17 07:00:00 7.1 5 Norte 8 Norte 0 -- -- 97
2020-03-17 06:00:00 6.5 5 Norte 8 Nordeste 0.2 -- -- 96
2020-03-17 05:00:00 6 4 Oeste 8 Norte 1.6 -- -- 96
2020-03-17 04:00:00 5.7 0 Calma 5 Norte 0.2 -- -- 95
2020-03-17 03:00:00 5.3 3 Norte 5 Norte 0 -- -- 95
2020-03-17 02:00:00 5 2 Norte 5 Norte 0 -- -- 94
2020-03-17 01:00:00 5.8 0 Calma 6 Oeste 0 -- -- 94
2020-03-17 00:00:00 6 3 Noroeste 12 Oeste 0 -- -- 94
2020-03-16 23:00:00 5.7 8 Oeste 13 Noroeste 0 -- -- 93
2020-03-16 22:00:00 5.7 8 Noroeste 13 Noroeste 0 -- -- 94
2020-03-16 21:00:00 5.3 8 Noroeste 15 Noroeste 0.2 -- -- 94
2020-03-16 20:00:00 5.3 10 Noroeste 17 Oeste 0.6 -- -- 93
2020-03-16 19:00:00 5.6 8 Norte 14 Noroeste 0.8 -- -- 93
2020-03-16 18:00:00 5.8 9 Norte 18 Noroeste 0.2 -- -- 92
2020-03-16 17:00:00 5.9 11 Noroeste 18 Oeste 0.2 -- -- 91
2020-03-16 16:00:00 6.5 8 Noroeste 20 Noroeste 0.4 -- -- 91
2020-03-16 15:00:00 6.5 10 Noroeste 19 Noroeste 0 -- -- 91
2020-03-16 14:00:00 6.3 13 Norte 22 Noroeste 0.8 -- -- 90
2020-03-16 13:00:00 6.7 6 Noroeste 24 Noroeste 1.8 -- -- 94
2020-03-16 12:00:00 6.4 20 Oeste 37 Oeste 2.6 -- -- 92
2020-03-16 11:00:00 11.6 15 Sur 30 Oeste 0 -- -- 87
2020-03-16 10:00:00 11.7 13 Sur 24 Sudeste 0 -- -- 92
2020-03-16 09:00:00 11.5 19 Sudeste 26 Sudeste 0 -- -- 92
2020-03-16 08:00:00 10.6 12 Sudeste 19 Sudeste 0 -- -- 92
2020-03-16 07:00:00 10.5 13 Sudeste 22 Sudeste 0 -- -- 93
2020-03-16 06:00:00 9.6 6 Sudeste 10 Sudeste 0 -- -- 95
2020-03-16 05:00:00 9.8 2 Noroeste 11 Noroeste 0 -- -- 94
2020-03-16 04:00:00 10 0 Calma 6 Norte 0 -- -- 93
2020-03-16 03:00:00 10.4 4 Noroeste 10 Sudoeste 0.6 -- -- 92
2020-03-16 02:00:00 10.6 5 Sudoeste 14 Sudeste 0 -- -- 89
2020-03-16 01:00:00 10.1 10 Sudeste 13 Sudeste 0 -- -- 90
2020-03-16 00:00:00 10.4 4 Sudeste 9 Sudeste 0 -- -- 87
2020-03-15 23:00:00 10.4 6 Sudeste 12 Sudeste 0 -- -- 86
2020-03-15 22:00:00 10.7 8 Sudeste 15 Sur 0 -- -- 84
2020-03-15 21:00:00 10.9 10 Sudeste 26 Sur 0 -- -- 81
2020-03-15 20:00:00 11.6 19 Sur 31 Sur 0 -- -- 80
2020-03-15 19:00:00 12.7 22 Sur 34 Sur 0 -- -- 77
2020-03-15 18:00:00 15.3 22 Sur 35 Sur 0 -- -- 62
2020-03-15 17:00:00 16.8 25 Sur 36 Sur 0 -- -- 55
2020-03-15 16:00:00 18.1 23 Sur 35 Sur 0 -- -- 50
2020-03-15 15:00:00 18.3 22 Sur 32 Sur 0 -- -- 49
2020-03-15 14:00:00 18.3 22 Sur 32 Sur 0 -- -- 52
2020-03-15 13:00:00 17.8 22 Sur 34 Sur 0 -- -- 52
2020-03-15 12:00:00 17.1 18 Sur 27 Sur 0 -- -- 51
2020-03-15 11:00:00 15.5 8 Sudeste 18 Sudeste 0 -- -- 55
2020-03-15 10:00:00 12.4 2 Este 8 Norte 0 -- -- 83
2020-03-15 09:00:00 9.2 0 Calma 3 Noroeste 0 -- -- 96
2020-03-15 08:00:00 5.6 0 Calma 4 Norte 0 -- -- 96
2020-03-15 07:00:00 3.4 0 Calma 2 Nordeste 0 -- -- 94
2020-03-15 06:00:00 4.5 0 Calma 5 Oeste 0 -- -- 92
2020-03-15 05:00:00 5.7 3 Oeste 5 Oeste 0 -- -- 91
2020-03-15 04:00:00 7.5 3 Oeste 8 Oeste 0 -- -- 92
2020-03-15 03:00:00 9 3 Nordeste 6 Nordeste 0 -- -- 87
2020-03-15 02:00:00 11.5 5 Sudeste 13 Sur 0 -- -- 86
2020-03-15 01:00:00 11.7 10 Sur 18 Sur 0 -- -- 87
2020-03-15 00:00:00 11.8 10 Sur 15 Sur 0 -- -- 88
2020-03-14 23:00:00 11.7 8 Sudeste 13 Sudeste 0 -- -- 90
2020-03-14 22:00:00 10.8 10 Sudeste 15 Este 0 -- -- 91
2020-03-14 21:00:00 11.5 12 Este 19 Sudeste 0 -- -- 87
2020-03-14 20:00:00 12.7 15 Sudeste 23 Sudeste 0 -- -- 82
2020-03-14 19:00:00 14.6 13 Sudeste 22 Sur 0 -- -- 72
2020-03-14 18:00:00 17.1 17 Sur 29 Sudeste 0 -- -- 64
2020-03-14 17:00:00 18.8 19 Sudeste 32 Sudeste 0 -- -- 57
2020-03-14 16:00:00 20.1 18 Sur 27 Sudeste 0 -- -- 51
2020-03-14 15:00:00 20.1 13 Sudeste 26 Sudeste 0 -- -- 50
2020-03-14 14:00:00 19.2 15 Sudeste 25 Sudeste 0 -- -- 56
2020-03-14 13:00:00 19.1 9 Sudeste 18 Sudeste 0 -- -- 53
2020-03-14 12:00:00 17.7 9 Sudeste 18 Sur 0 -- -- 59
2020-03-14 11:00:00 16.1 10 Sur 21 Sur 0 -- -- 65
2020-03-14 10:00:00 12.7 0 Calma 4 Sur 0 -- -- 78
2020-03-14 09:00:00 8.3 0 Calma 5 Norte 0 -- -- 93
2020-03-14 08:00:00 3.8 0 Calma 0 Calma 0 -- -- 93
2020-03-14 07:00:00 4.2 0 Calma 4 Noroeste 0 -- -- 93
2020-03-14 06:00:00 5.4 0 Calma 2 Sudeste 0 -- -- 92
2020-03-14 05:00:00 6.3 2 Sur 4 Norte 0 -- -- 92
2020-03-14 04:00:00 6.5 4 Norte 6 Noroeste 0 -- -- 91
2020-03-14 03:00:00 6.2 3 Noroeste 6 Noroeste 0 -- -- 89
2020-03-14 02:00:00 6.6 2 Noroeste 3 Noroeste 0 -- -- 86
2020-03-14 01:00:00 6.9 2 Sudeste 10 Sudeste 0 -- -- 81
2020-03-14 00:00:00 8.4 4 Sudeste 9 Sudeste 0 -- -- 79
2020-03-13 23:00:00 9.7 0 Calma 4 Norte 0 -- -- 83
2020-03-13 22:00:00 10.4 2 Sudeste 7 Este 0 -- -- 79
2020-03-13 21:00:00 11.9 6 Nordeste 12 Nordeste 0 -- -- 83
2020-03-13 20:00:00 12.7 6 Norte 13 Nordeste 0 -- -- 76
2020-03-13 19:00:00 15.4 5 Sur 18 Sur 0 -- -- 49
2020-03-13 18:00:00 17.3 14 Sur 27 Nordeste 0 -- -- 46
2020-03-13 17:00:00 18.7 16 Nordeste 28 Nordeste 0 -- -- 60
2020-03-13 16:00:00 19 18 Nordeste 30 Nordeste 0 -- -- 61
2020-03-13 15:00:00 19.4 15 Norte 25 Nordeste 0 -- -- 59
2020-03-13 14:00:00 18.1 17 Nordeste 29 Nordeste 0 -- -- 64
2020-03-13 13:00:00 17.8 19 Nordeste 30 Nordeste 0 -- -- 66
2020-03-13 12:00:00 16.5 21 Nordeste 30 Norte 0 -- -- 72
2020-03-13 11:00:00 15.8 23 Norte 32 Nordeste 0 -- -- 72
2020-03-13 10:00:00 13.7 23 Norte 35 Norte 0 -- -- 80
2020-03-13 09:00:00 11.7 21 Norte 34 Norte 0 -- -- 88
2020-03-13 08:00:00 10.1 17 Norte 32 Norte 0 -- -- 91
2020-03-13 07:00:00 9.8 9 Noroeste 26 Norte 0 -- -- 84
2020-03-13 06:00:00 8.9 9 Noroeste 17 Noroeste 0 -- -- 92
2020-03-13 05:00:00 5.1 3 Sudoeste 9 Noroeste 0 -- -- 87
2020-03-13 04:00:00 5.3 0 Calma 5 Norte 0 -- -- 86
2020-03-13 03:00:00 5.9 0 Calma 3 Oeste 0 -- -- 84
2020-03-13 02:00:00 6.5 0 Calma 2 Oeste 0 -- -- 80
2020-03-13 01:00:00 8.2 0 Calma 3 Este 0 -- -- 75
2020-03-13 00:00:00 10.4 2 Este 10 Sudeste 0 -- -- 68
2020-03-12 23:00:00 13.4 12 Sudeste 15 Sudeste 0 -- -- 59
2020-03-12 22:00:00 14 12 Sudeste 16 Sudeste 0 -- -- 57
2020-03-12 21:00:00 15.1 12 Sudeste 16 Sudeste 0 -- -- 54
2020-03-12 20:00:00 16.8 8 Sudeste 14 Sudeste 0 -- -- 51
2020-03-12 19:00:00 20.1 6 Sudoeste 22 Sudeste 0 -- -- 44
2020-03-12 18:00:00 22.6 15 Sudeste 24 Sudeste 0 -- -- 38
2020-03-12 17:00:00 24.2 17 Sudeste 25 Sudeste 0 -- -- 37
2020-03-12 16:00:00 25.1 17 Sudeste 27 Sudeste 0 -- -- 35
2020-03-12 15:00:00 25.4 14 Sur 26 Sur 0 -- -- 32
2020-03-12 14:00:00 25.4 15 Sur 28 Sudeste 0 -- -- 32
2020-03-12 13:00:00 24.7 19 Sur 27 Sur 0 -- -- 33
2020-03-12 12:00:00 23.8 18 Sudeste 25 Sudeste 0 -- -- 36
2020-03-12 11:00:00 20.9 8 Sudeste 13 Sudeste 0 -- -- 48
2020-03-12 10:00:00 15.3 3 Sudeste 5 Oeste 0 -- -- 65
2020-03-12 09:00:00 9.7 4 Oeste 7 Noroeste 0 -- -- 86
2020-03-12 08:00:00 4.9 0 Calma -- -- 0 -- -- 93
2020-03-12 07:00:00 4.3 0 Calma -- -- 0 -- -- 91
2020-03-12 06:00:00 4.8 0 Calma -- -- 0 -- -- 90
2020-03-12 05:00:00 4.7 0 Calma 5 Norte 0 -- -- 88
2020-03-12 04:00:00 5.9 0 Calma 4 Sudoeste 0 -- -- 87
2020-03-12 03:00:00 6.5 0 Calma 4 Oeste 0 -- -- 82
2020-03-12 02:00:00 8.1 4 Noroeste 7 Noroeste 0 -- -- 80
2020-03-12 01:00:00 9.2 4 Norte 6 Norte 0 -- -- 75
2020-03-12 00:00:00 12.5 0 Calma 13 Sudeste 0 -- -- 63
2020-03-11 23:00:00 13.3 9 Sudeste 14 Sur 0 -- -- 64
2020-03-11 22:00:00 14.5 10 Sur 14 Sudeste 0 -- -- 61
2020-03-11 21:00:00 14.9 12 Sudeste 17 Sudeste 0 -- -- 61
2020-03-11 20:00:00 16.5 15 Sudeste 17 Sudeste 0 -- -- 55
2020-03-11 19:00:00 19.7 15 Sudeste 30 Sudeste 0 -- -- 48
2020-03-11 18:00:00 22.7 24 Sudeste 32 Sudeste 0 -- -- 41
2020-03-11 17:00:00 25.4 21 Sur 27 Sudeste 0 -- -- 38
2020-03-11 16:00:00 27.2 20 Sudeste 27 Sudeste 0 -- -- 37
2020-03-11 15:00:00 27.9 6 Nordeste 13 Norte 0 -- -- 31
2020-03-11 14:00:00 27.3 5 Norte 16 Norte 0 -- -- 32
2020-03-11 13:00:00 25.9 4 Oeste 11 Norte 0 -- -- 35
2020-03-11 12:00:00 23.5 4 Nordeste 11 Noroeste 0 -- -- 40
2020-03-11 11:00:00 20.5 6 Norte 10 Norte 0 -- -- 46
2020-03-11 10:00:00 16.5 6 Norte 13 Norte 0 -- -- 58
2020-03-11 09:00:00 11.2 6 Norte 12 Noroeste 0 -- -- 75
2020-03-11 08:00:00 5.5 3 Norte 5 Oeste 0 -- -- 90
2020-03-11 07:00:00 5.6 0 Calma 9 Oeste 0 -- -- 86
2020-03-11 06:00:00 6.2 6 Noroeste 15 Norte 0 -- -- 86
2020-03-11 05:00:00 6.7 9 Norte 12 Norte 0 -- -- 86
2020-03-11 04:00:00 7.2 2 Norte 8 Norte 0 -- -- 84
2020-03-11 03:00:00 7.7 10 Noroeste 17 Norte 0 -- -- 88
2020-03-11 02:00:00 6.2 4 Oeste 9 Norte 0 -- -- 92
2020-03-11 01:00:00 5.6 3 Noroeste 5 Oeste 0 -- -- 90
2020-03-11 00:00:00 6.3 0 Calma 5 Sudoeste 0 -- -- 87
2020-03-10 23:00:00 8.4 0 Calma 8 Sudeste 0 -- -- 86
2020-03-10 22:00:00 10.2 7 Sudeste 16 Sudeste 0 -- -- 83
2020-03-10 21:00:00 11.2 15 Sudeste 24 Sudeste 0 -- -- 81
2020-03-10 20:00:00 12.4 17 Sudeste 27 Sudeste 0 -- -- 75
2020-03-10 19:00:00 14.3 21 Sudeste 28 Sudeste 0 -- -- 64
2020-03-10 18:00:00 17.7 20 Sudeste 27 Sudeste 0 -- -- 54
2020-03-10 17:00:00 19.1 22 Sudeste 27 Sudeste 0 -- -- 51
2020-03-10 16:00:00 21 19 Sudeste 28 Sudeste 0 -- -- 46
2020-03-10 15:00:00 22.4 15 Sudeste 23 Este 0 -- -- 37
2020-03-10 14:00:00 22.5 8 Noroeste 18 Noroeste 0 -- -- 33
2020-03-10 13:00:00 20.7 9 Noroeste 18 Noroeste 0 -- -- 34
2020-03-10 12:00:00 18.6 11 Norte 19 Noroeste 0 -- -- 37
2020-03-10 11:00:00 16.3 9 Norte 15 Norte 0 -- -- 44
2020-03-10 10:00:00 13.7 8 Oeste 11 Oeste 0 -- -- 49
2020-03-10 09:00:00 10.1 5 Noroeste 8 Noroeste 0 -- -- 58
2020-03-10 08:00:00 4.9 5 Noroeste 8 Norte 0 -- -- 76
2020-03-10 07:00:00 3.8 0 Calma 6 Noroeste 0 -- -- 74
2020-03-10 06:00:00 5.6 0 Calma 10 Nordeste 0 -- -- 66
2020-03-10 05:00:00 7 6 Norte 21 Oeste 0 -- -- 62
2020-03-10 04:00:00 8 10 Noroeste 20 Noroeste 0 -- -- 59
2020-03-10 03:00:00 9.2 15 Oeste 19 Oeste 0 -- -- 55
2020-03-10 02:00:00 10.6 8 Oeste 20 Oeste 0 -- -- 50
2020-03-10 01:00:00 10.6 9 Sudoeste 16 Noroeste 0 -- -- 51
2020-03-10 00:00:00 12.8 9 Norte 24 Noroeste 0 -- -- 44
2020-03-09 23:00:00 11.7 3 Oeste 17 Noroeste 0 -- -- 49
2020-03-09 22:00:00 13.7 13 Noroeste 36 Noroeste 0 -- -- 44
2020-03-09 21:00:00 14.8 21 Noroeste 37 Noroeste 0 -- -- 41
2020-03-09 20:00:00 15.3 17 Noroeste 37 Noroeste 0 -- -- 42
2020-03-09 19:00:00 16.2 19 Noroeste 36 Noroeste 0 -- -- 39
2020-03-09 18:00:00 17.1 23 Noroeste 41 Oeste 0 -- -- 38
2020-03-09 17:00:00 18.9 22 Noroeste 40 Oeste 0 -- -- 38
2020-03-09 16:00:00 19.2 26 Noroeste 42 Noroeste 0 -- -- 36
2020-03-09 15:00:00 18.9 23 Noroeste 43 Noroeste 0 -- -- 37
2020-03-09 14:00:00 18.1 28 Noroeste 46 Noroeste 0 -- -- 41
2020-03-09 13:00:00 17.4 25 Noroeste 42 Oeste 0 -- -- 42
2020-03-09 12:00:00 15.9 15 Noroeste 27 Noroeste 0 -- -- 49
2020-03-09 11:00:00 14.1 17 Noroeste 30 Noroeste 0 -- -- 57
2020-03-09 10:00:00 12.8 13 Noroeste 26 Oeste 0 -- -- 61
2020-03-09 09:00:00 10 18 Oeste 26 Oeste 0 -- -- 70
2020-03-09 08:00:00 8.3 14 Oeste 25 Oeste 0 -- -- 74
2020-03-09 07:00:00 7.9 15 Oeste 28 Noroeste 0 -- -- 74
2020-03-09 06:00:00 8.1 13 Noroeste 20 Oeste 0 -- -- 72
2020-03-09 05:00:00 10.1 11 Oeste 22 Oeste 0 -- -- 62
2020-03-09 04:00:00 10.9 6 Este 22 Oeste 0 -- -- 58
2020-03-09 03:00:00 11.7 17 Sudoeste 36 Oeste 0 -- -- 53
2020-03-09 02:00:00 12.8 17 Oeste 28 Noroeste 0 -- -- 44
2020-03-09 01:00:00 13.5 13 Noroeste 28 Oeste 0 -- -- 43
2020-03-09 00:00:00 13.8 17 Oeste 27 Noroeste 0 -- -- 43
2020-03-08 23:00:00 14.8 12 Oeste 18 Noroeste 0 -- -- 41
2020-03-08 22:00:00 14.8 6 Oeste 18 Oeste 0 -- -- 40
2020-03-08 21:00:00 13.6 4 Sudoeste 21 Norte 0 -- -- 41
2020-03-08 20:00:00 14 10 Noroeste 14 Noroeste 0 -- -- 37
2020-03-08 19:00:00 16.9 13 Noroeste 30 Noroeste 0 -- -- 32
2020-03-08 18:00:00 19.6 20 Noroeste 35 Noroeste 0 -- -- 29
2020-03-08 17:00:00 21 20 Noroeste 32 Noroeste 0 -- -- 26
2020-03-08 16:00:00 21.6 13 Noroeste 35 Oeste 0 -- -- 31
2020-03-08 15:00:00 21.4 23 Oeste 33 Oeste 0 -- -- 26
2020-03-08 14:00:00 20.3 22 Oeste 33 Noroeste 0 -- -- 34
2020-03-08 13:00:00 18.7 15 Oeste 29 Oeste 0 -- -- 38
2020-03-08 12:00:00 17.4 13 Noroeste 29 Oeste 0 -- -- 42
2020-03-08 11:00:00 15.1 17 Oeste 30 Oeste 0 -- -- 49
2020-03-08 10:00:00 12.1 13 Oeste 22 Oeste 0 -- -- 61
2020-03-08 09:00:00 6.6 8 Norte 14 Norte 0 -- -- 78
2020-03-08 08:00:00 0.9 9 Norte 17 Norte 0 -- -- 89
2020-03-08 07:00:00 0.2 11 Norte 14 Norte 0 -- -- 89
2020-03-08 06:00:00 0.5 8 Noroeste 13 Norte 0 -- -- 89
2020-03-08 05:00:00 0.6 5 Norte 11 Norte 0 -- -- 88
2020-03-08 04:00:00 0.4 0 Calma 8 Noroeste 0 -- -- 86
2020-03-08 03:00:00 1.5 3 Noroeste 8 Noroeste 0 -- -- 83
2020-03-08 02:00:00 1.8 3 Noroeste 9 Norte 0 -- -- 81
2020-03-08 01:00:00 3.4 3 Noroeste 9 Oeste 0 -- -- 76
2020-03-08 00:00:00 4.8 4 Oeste 10 Nordeste 0 -- -- 72
2020-03-07 23:00:00 6.9 10 Sur 15 Sudeste 0 -- -- 64
2020-03-07 22:00:00 7.5 14 Sudeste 17 Sudeste 0 -- -- 64
2020-03-07 21:00:00 9.4 13 Sudeste 22 Sudeste 0 -- -- 56
2020-03-07 20:00:00 12.2 11 Sudeste 21 Sudeste 0 -- -- 49
2020-03-07 19:00:00 14.7 7 Este 28 Oeste 0 -- -- 47
2020-03-07 18:00:00 16.8 17 Oeste 27 Oeste 0 -- -- 40
2020-03-07 17:00:00 16.5 9 Norte 34 Noroeste 0 -- -- 41
2020-03-07 16:00:00 16.3 18 Noroeste 37 Noroeste 0 -- -- 41
2020-03-07 15:00:00 15.7 21 Noroeste 38 Norte 0 -- -- 41
2020-03-07 14:00:00 14.8 24 Noroeste 40 Noroeste 0 -- -- 41
2020-03-07 13:00:00 14.3 23 Noroeste 39 Noroeste 0 -- -- 41
2020-03-07 12:00:00 13.2 24 Norte 39 Noroeste 0 -- -- 44
2020-03-07 11:00:00 11.7 20 Norte 37 Noroeste 0 -- -- 44
2020-03-07 10:00:00 10 21 Norte 32 Norte 0 -- -- 47
2020-03-07 09:00:00 7.2 3 Este 9 Sudeste 0 -- -- 53
2020-03-07 08:00:00 5.8 7 Oeste 30 Norte 0 -- -- 56
2020-03-07 07:00:00 5.4 15 Norte 23 Norte 0 -- -- 56
2020-03-07 06:00:00 4.5 14 Noroeste 27 Noroeste 0 -- -- 59
2020-03-07 05:00:00 5.9 18 Noroeste 38 Noroeste 0 -- -- 54
2020-03-07 04:00:00 7 24 Noroeste 40 Noroeste 0 -- -- 49
2020-03-07 03:00:00 6.7 21 Noroeste 31 Noroeste 0 -- -- 51
2020-03-07 02:00:00 6.6 17 Noroeste 25 Noroeste 0 -- -- 51
2020-03-07 01:00:00 6.5 11 Noroeste 24 Noroeste 0 -- -- 50
2020-03-07 00:00:00 7.9 15 Noroeste 29 Noroeste 0 -- -- 45
2020-03-06 23:00:00 7.9 13 Noroeste 23 Noroeste 0 -- -- 45
2020-03-06 22:00:00 8.5 15 Noroeste 33 Noroeste 0 -- -- 40
2020-03-06 21:00:00 9.6 17 Noroeste 44 Noroeste 0 -- -- 38
2020-03-06 20:00:00 10.7 27 Noroeste 44 Noroeste 0 -- -- 38
2020-03-06 19:00:00 11.5 31 Noroeste 55 Noroeste 0 -- -- 36
2020-03-06 18:00:00 12.7 29 Noroeste 56 Noroeste 0 -- -- 36
2020-03-06 17:00:00 13.1 35 Noroeste 61 Noroeste 0 -- -- 34
2020-03-06 16:00:00 13.6 42 Noroeste 63 Noroeste 0 -- -- 36
2020-03-06 15:00:00 12.6 38 Noroeste 59 Noroeste 0 -- -- 43
2020-03-06 14:00:00 11.7 35 Oeste 58 Oeste 0 -- -- 57
2020-03-06 13:00:00 12.1 34 Noroeste 59 Oeste 0.8 -- -- 64
2020-03-06 12:00:00 12.3 31 Noroeste 49 Noroeste 0 -- -- 54
2020-03-06 11:00:00 11.3 30 Noroeste 61 Oeste 0 -- -- 59
2020-03-06 10:00:00 11.7 31 Noroeste 49 Noroeste 0 -- -- 56
2020-03-06 09:00:00 9.8 22 Noroeste 33 Noroeste 0 -- -- 61
2020-03-06 08:00:00 7.4 16 Noroeste 36 Noroeste 0 -- -- 69
2020-03-06 07:00:00 8.2 23 Noroeste 35 Noroeste 0 -- -- 68
2020-03-06 06:00:00 8.4 14 Noroeste 35 Noroeste 0 -- -- 70
2020-03-06 05:00:00 9.6 23 Noroeste 48 Noroeste 0 -- -- 68
2020-03-06 04:00:00 10.7 21 Noroeste 41 Noroeste 0 -- -- 65
2020-03-06 03:00:00 11.2 17 Noroeste 46 Noroeste 0 -- -- 62
2020-03-06 02:00:00 11.2 22 Noroeste 43 Noroeste 0 -- -- 63
2020-03-06 01:00:00 11.7 28 Noroeste 48 Noroeste 0 -- -- 60
2020-03-06 00:00:00 12.1 26 Noroeste 46 Noroeste 0 -- -- 58
2020-03-05 23:00:00 12.3 24 Noroeste 46 Noroeste 0 -- -- 57
2020-03-05 22:00:00 13 27 Noroeste 42 Noroeste 0 -- -- 54
2020-03-05 21:00:00 13.8 22 Noroeste 44 Oeste 0 -- -- 52
2020-03-05 20:00:00 14.7 29 Oeste 50 Noroeste 0 -- -- 49
2020-03-05 19:00:00 15.6 27 Noroeste 53 Oeste 0 -- -- 46
2020-03-05 18:00:00 16.6 39 Noroeste 68 Noroeste 0 -- -- 47
2020-03-05 17:00:00 18.4 35 Noroeste 66 Noroeste 0 -- -- 51
2020-03-05 16:00:00 19.4 37 Noroeste 62 Oeste 0 -- -- 49
2020-03-05 15:00:00 19.4 30 Noroeste 48 Oeste 0 -- -- 50
2020-03-05 14:00:00 20.5 20 Noroeste 50 Noroeste 0 -- -- 46
2020-03-05 13:00:00 20.2 27 Noroeste 42 Noroeste 0 -- -- 44
2020-03-05 12:00:00 18.8 25 Noroeste 41 Noroeste 0 -- -- 49
2020-03-05 11:00:00 17.2 30 Noroeste 54 Oeste 0 -- -- 56
2020-03-05 10:00:00 15.6 27 Noroeste 50 Noroeste 0 -- -- 58
2020-03-05 09:00:00 13.6 23 Noroeste 36 Noroeste 0 -- -- 64
2020-03-05 08:00:00 12.2 12 Noroeste 28 Noroeste 0 -- -- 67
2020-03-05 07:00:00 11.8 19 Noroeste 29 Oeste 0 -- -- 69
2020-03-05 06:00:00 10.5 7 Noroeste 21 Oeste 0 -- -- 70
2020-03-05 05:00:00 8.8 8 Norte 19 Norte 0 -- -- 76
2020-03-05 04:00:00 8.4 8 Norte 13 Norte 0 -- -- 76
2020-03-05 03:00:00 8.7 8 Norte 16 Norte 0 -- -- 76
2020-03-05 02:00:00 9.1 9 Norte 17 Norte 0 -- -- 74
2020-03-05 01:00:00 8.9 12 Norte 16 Norte 0 -- -- 75
2020-03-05 00:00:00 10.2 9 Norte 17 Noroeste 0 -- -- 71
2020-03-04 23:00:00 12 10 Norte 20 Noroeste 0 -- -- 64
2020-03-04 22:00:00 12.4 11 Noroeste 24 Oeste 0 -- -- 63
2020-03-04 21:00:00 13.2 13 Noroeste 28 Noroeste 0 -- -- 59
2020-03-04 20:00:00 14.6 18 Noroeste 38 Noroeste 0 -- -- 55
2020-03-04 19:00:00 15.4 22 Noroeste 38 Noroeste 0 -- -- 55
2020-03-04 18:00:00 17.2 21 Noroeste 37 Noroeste 0 -- -- 51
2020-03-04 17:00:00 18.8 24 Noroeste 45 Noroeste 0 -- -- 48
2020-03-04 16:00:00 19 28 Noroeste 43 Oeste 0 -- -- 46
2020-03-04 15:00:00 18.7 28 Noroeste 49 Noroeste 0 -- -- 48
2020-03-04 14:00:00 18.7 31 Oeste 53 Oeste 0 -- -- 50
2020-03-04 13:00:00 17.4 23 Noroeste 51 Noroeste 0 -- -- 57
2020-03-04 12:00:00 17.4 32 Noroeste 51 Noroeste 0 -- -- 61
2020-03-04 11:00:00 15.8 21 Noroeste 42 Noroeste 0 -- -- 66
2020-03-04 10:00:00 15.2 17 Norte 41 Noroeste 0 -- -- 68
2020-03-04 09:00:00 14.8 19 Noroeste 50 Noroeste 0 -- -- 69
2020-03-04 08:00:00 14 24 Noroeste 51 Noroeste 0 -- -- 73
2020-03-04 07:00:00 14 31 Noroeste 46 Noroeste 0 -- -- 73
2020-03-04 06:00:00 14.2 17 Noroeste 35 Noroeste 0 -- -- 73
2020-03-04 05:00:00 14.2 17 Noroeste 40 Oeste 0 -- -- 72
2020-03-04 04:00:00 14.2 27 Noroeste 41 Noroeste 0 -- -- 72
2020-03-04 03:00:00 14.1 27 Noroeste 43 Noroeste 0 -- -- 73
2020-03-04 02:00:00 14.1 30 Noroeste 48 Noroeste 0 -- -- 72
2020-03-04 01:00:00 14.1 23 Noroeste 44 Noroeste 0 -- -- 72
2020-03-04 00:00:00 13.9 20 Noroeste 52 Noroeste 0 -- -- 71